Time;durP1;ratioP1;P1;durP2;ratioP2;P2;SDS_P1;SDS_P2;PMS_P1;PMS_P2;Temp;Humidity;BMP_temperature;BMP_pressure;BME280_temperature;BME280_humidity;BME280_pressure;Samples;Min_cycle;Max_cycle;Signal;HPM_P1;HPM_P2
2024/04/16 00:00:36;;;;;;;7.40;1.10;;;6.30;99.90;;;;;;5340283;26;20281;-67
2024/04/16 00:03:02;;;;;;;5.03;1.10;;;6.30;99.90;;;;;;5367216;26;20245;-67
2024/04/16 00:05:28;;;;;;;3.67;1.10;;;6.30;99.90;;;;;;5338625;26;21631;-67
2024/04/16 00:07:54;;;;;;;6.07;0.90;;;6.30;99.90;;;;;;5338516;26;20231;-67
2024/04/16 00:10:19;;;;;;;4.53;1.20;;;6.20;99.90;;;;;;5339691;26;20230;-67
2024/04/16 00:12:47;;;;;;;6.93;1.35;;;6.20;99.90;;;;;;5348065;26;20269;-67
2024/04/16 00:15:43;;;;;;;5.63;1.10;;;6.20;99.90;;;;;;5339097;26;20678;-66
2024/04/16 00:18:09;;;;;;;7.90;1.27;;;6.20;99.90;;;;;;5368923;26;20596;-67
2024/04/16 00:20:35;;;;;;;5.60;0.93;;;6.10;99.90;;;;;;5341848;26;20269;-67
2024/04/16 00:23:01;;;;;;;7.50;1.08;;;6.20;99.90;;;;;;5341336;26;20230;-68
2024/04/16 00:25:26;;;;;;;4.57;1.00;;;6.10;99.90;;;;;;5338860;26;20238;-69
2024/04/16 00:27:52;;;;;;;3.92;1.17;;;6.10;99.90;;;;;;5400384;26;20241;-66
2024/04/16 00:30:18;;;;;;;4.78;1.13;;;6.10;99.90;;;;;;5398713;26;20325;-66
2024/04/16 00:32:44;;;;;;;3.50;1.00;;;6.10;99.90;;;;;;5342790;26;20273;-69
2024/04/16 00:35:10;;;;;;;5.40;1.40;;;6.10;99.90;;;;;;5345504;26;20269;-68
2024/04/16 00:37:36;;;;;;;5.20;1.23;;;6.10;99.90;;;;;;5347796;26;20283;-68
2024/04/16 00:40:02;;;;;;;5.25;0.93;;;6.10;99.90;;;;;;5344920;26;20242;-67
2024/04/16 00:42:28;;;;;;;3.10;1.20;;;6.10;99.90;;;;;;5343512;26;20572;-68
2024/04/16 00:44:54;;;;;;;7.93;1.10;;;6.10;99.90;;;;;;5338076;26;20241;-68
2024/04/16 00:47:20;;;;;;;4.70;1.20;;;6.10;99.90;;;;;;5342408;26;20361;-66
2024/04/16 00:49:45;;;;;;;3.58;1.30;;;6.00;99.90;;;;;;5339523;26;20238;-67
2024/04/16 00:52:12;;;;;;;2.83;1.10;;;6.00;99.90;;;;;;5342074;26;20277;-67
2024/04/16 00:54:37;;;;;;;3.65;1.00;;;6.00;99.90;;;;;;5342302;26;20306;-66
2024/04/16 00:57:03;;;;;;;2.10;1.00;;;6.00;99.90;;;;;;5340668;26;20234;-67
2024/04/16 00:59:32;;;;;;;3.80;1.00;;;6.00;99.90;;;;;;5370852;26;20289;-68
2024/04/16 01:01:57;;;;;;;2.25;0.90;;;6.00;99.90;;;;;;5340371;26;20775;-67
2024/04/16 01:04:23;;;;;;;4.82;0.98;;;6.00;99.90;;;;;;5345172;26;20226;-67
2024/04/16 01:06:52;;;;;;;1.33;0.70;;;6.00;99.90;;;;;;5341050;26;20623;-67
2024/04/16 01:09:19;;;;;;;2.40;0.77;;;6.00;99.90;;;;;;5340880;26;20235;-67
2024/04/16 01:11:48;;;;;;;4.05;0.82;;;6.00;99.90;;;;;;5341173;26;20302;-68
2024/04/16 01:14:14;;;;;;;5.68;1.00;;;6.00;99.90;;;;;;5347206;26;20289;-66
2024/04/16 01:16:40;;;;;;;6.15;0.90;;;6.00;99.90;;;;;;5340812;26;20230;-67
2024/04/16 01:19:06;;;;;;;2.22;0.90;;;6.00;99.90;;;;;;5337142;26;20284;-67
2024/04/16 01:21:32;;;;;;;3.15;0.95;;;6.00;99.90;;;;;;5336818;26;20234;-69
2024/04/16 01:23:58;;;;;;;5.50;0.95;;;6.00;99.90;;;;;;5343666;26;20345;-68
2024/04/16 01:26:23;;;;;;;3.35;0.95;;;5.90;99.90;;;;;;5346015;26;20375;-69
2024/04/16 01:28:49;;;;;;;5.85;1.20;;;5.90;99.90;;;;;;5340563;26;20222;-68
2024/04/16 01:31:15;;;;;;;8.18;0.98;;;5.90;99.90;;;;;;5400977;26;20830;-67
2024/04/16 01:33:41;;;;;;;2.47;0.90;;;5.90;99.90;;;;;;5337049;26;20558;-69
2024/04/16 01:36:07;;;;;;;2.25;0.80;;;6.00;99.90;;;;;;5344305;26;20234;-68
2024/04/16 01:38:32;;;;;;;6.07;1.10;;;6.00;99.90;;;;;;5343212;26;20234;-68
2024/04/16 01:40:58;;;;;;;4.93;0.93;;;6.00;99.90;;;;;;5337479;26;20238;-68
2024/04/16 01:43:24;;;;;;;4.80;1.00;;;6.00;99.90;;;;;;5394218;26;20242;-68
2024/04/16 01:45:50;;;;;;;2.67;1.00;;;6.00;99.90;;;;;;5337398;26;20233;-68
2024/04/16 01:48:16;;;;;;;5.03;0.90;;;6.00;99.90;;;;;;5342028;26;20289;-68
2024/04/16 01:50:41;;;;;;;3.22;1.00;;;6.00;99.90;;;;;;5339645;26;20335;-68
2024/04/16 01:53:07;;;;;;;4.03;0.80;;;6.00;99.90;;;;;;5399678;26;20657;-68
2024/04/16 01:55:35;;;;;;;2.60;0.80;;;5.90;99.90;;;;;;5340109;26;20234;-68
2024/04/16 01:58:05;;;;;;;2.25;0.90;;;5.90;99.90;;;;;;5341999;26;20258;-68
2024/04/16 02:00:31;;;;;;;3.53;0.90;;;5.90;99.90;;;;;;5341027;26;20231;-69
2024/04/16 02:03:00;;;;;;;2.42;0.90;;;6.00;99.90;;;;;;5405978;26;20325;-68
2024/04/16 02:05:26;;;;;;;2.60;0.88;;;6.00;99.90;;;;;;5351134;26;20341;-69
2024/04/16 02:07:51;;;;;;;2.33;0.88;;;6.00;99.90;;;;;;5344314;26;20298;-69
2024/04/16 02:10:17;;;;;;;0.95;0.75;;;6.00;99.90;;;;;;5340916;26;20646;-68
2024/04/16 02:12:43;;;;;;;2.78;0.70;;;6.10;99.90;;;;;;5401427;26;20750;-68
2024/04/16 02:15:09;;;;;;;3.78;1.00;;;6.10;99.90;;;;;;5345357;26;20284;-69
2024/04/16 02:17:35;;;;;;;5.55;0.82;;;6.20;99.90;;;;;;5348623;26;20323;-68
2024/04/16 02:20:01;;;;;;;3.85;0.93;;;6.10;99.90;;;;;;5343466;26;20239;-68
2024/04/16 02:22:26;;;;;;;3.70;0.80;;;6.20;99.90;;;;;;5398964;26;21256;-68
2024/04/16 02:24:52;;;;;;;2.88;0.80;;;6.20;99.90;;;;;;5371605;26;20338;-68
2024/04/16 02:27:18;;;;;;;2.10;0.80;;;6.20;99.90;;;;;;5401617;26;20317;-69
2024/04/16 02:29:43;;;;;;;3.35;1.00;;;6.10;99.90;;;;;;5346753;26;20377;-68
2024/04/16 02:32:09;;;;;;;1.48;1.10;;;6.20;99.90;;;;;;5401820;26;20281;-69
2024/04/16 02:34:35;;;;;;;6.90;1.10;;;6.20;99.90;;;;;;5345013;26;20230;-67
2024/04/16 02:37:00;;;;;;;4.35;1.15;;;6.20;99.90;;;;;;5368357;26;20234;-68
2024/04/16 02:39:26;;;;;;;3.45;1.15;;;6.30;99.90;;;;;;5342151;26;20327;-68
2024/04/16 02:41:53;;;;;;;5.00;1.10;;;6.30;99.90;;;;;;5345618;26;20238;-68
2024/04/16 02:44:19;;;;;;;2.88;1.20;;;6.40;99.90;;;;;;5343902;26;20273;-68
2024/04/16 02:46:44;;;;;;;4.68;1.35;;;6.40;99.90;;;;;;5341029;26;20234;-68
2024/04/16 02:49:10;;;;;;;4.32;1.20;;;6.40;99.90;;;;;;5403185;26;20246;-69
2024/04/16 02:51:36;;;;;;;6.22;1.73;;;6.50;99.90;;;;;;5341486;26;20406;-68
2024/04/16 02:54:01;;;;;;;4.00;1.20;;;6.60;99.90;;;;;;5340246;26;20238;-67
2024/04/16 02:56:27;;;;;;;4.00;1.35;;;6.60;99.90;;;;;;5340526;26;20706;-67
2024/04/16 02:58:53;;;;;;;5.80;0.98;;;6.60;99.90;;;;;;5342316;26;20246;-69
2024/04/16 03:01:18;;;;;;;7.45;1.30;;;6.60;99.90;;;;;;5345583;26;20343;-67
2024/04/16 03:03:44;;;;;;;9.95;1.50;;;6.60;99.90;;;;;;5342584;26;20276;-69
2024/04/16 03:06:10;;;;;;;4.22;1.20;;;6.60;99.90;;;;;;5346830;26;20296;-69
2024/04/16 03:08:35;;;;;;;10.40;1.50;;;6.60;99.90;;;;;;5343749;26;20238;-68
2024/04/16 03:11:02;;;;;;;6.88;1.40;;;6.60;99.90;;;;;;5342721;26;20247;-68
2024/04/16 03:13:28;;;;;;;9.80;1.55;;;6.70;99.90;;;;;;5340924;26;20351;-68
2024/04/16 03:15:54;;;;;;;9.32;1.30;;;6.70;99.90;;;;;;5341125;26;20288;-68
2024/04/16 03:18:20;;;;;;;4.13;1.15;;;6.70;99.90;;;;;;5341618;26;20254;-67
2024/04/16 03:20:46;;;;;;;8.18;1.45;;;6.80;99.90;;;;;;5338686;26;20286;-68
2024/04/16 03:23:11;;;;;;;7.97;1.50;;;6.80;99.90;;;;;;5338408;26;20353;-68
2024/04/16 03:25:46;;;;;;;3.67;1.13;;;6.80;99.90;;;;;;5341214;26;20239;-68
2024/04/16 03:28:12;;;;;;;6.57;1.15;;;6.90;99.90;;;;;;5338956;26;21040;-67
2024/04/16 03:30:37;;;;;;;8.30;1.35;;;6.90;99.90;;;;;;5343084;26;20245;-69
2024/04/16 03:33:04;;;;;;;5.25;1.25;;;6.90;99.90;;;;;;5346891;26;20304;-67
2024/04/16 03:35:29;;;;;;;5.45;1.25;;;6.90;99.90;;;;;;5340381;26;20338;-66
2024/04/16 03:37:55;;;;;;;5.82;1.48;;;6.90;99.90;;;;;;5342603;26;20243;-67
2024/04/16 03:40:21;;;;;;;6.97;1.38;;;6.90;99.90;;;;;;5340832;26;20325;-68
2024/04/16 03:42:47;;;;;;;7.03;1.30;;;6.90;99.90;;;;;;5362673;26;21438;-69
2024/04/16 03:45:12;;;;;;;7.95;1.38;;;6.90;99.90;;;;;;5401611;26;20277;-69
2024/04/16 03:47:38;;;;;;;8.13;1.48;;;6.90;99.90;;;;;;5341139;26;20578;-69
2024/04/16 03:50:04;;;;;;;4.97;1.35;;;6.90;99.90;;;;;;5343141;26;20234;-68
2024/04/16 03:52:30;;;;;;;7.50;1.30;;;6.90;99.90;;;;;;5350514;26;20238;-68
2024/04/16 03:54:56;;;;;;;6.05;1.55;;;6.90;99.90;;;;;;5346956;26;20289;-69
2024/04/16 03:57:21;;;;;;;9.68;1.92;;;6.90;99.90;;;;;;5345467;26;20242;-69
2024/04/16 04:02:35;;;;;;;8.52;1.83;;;6.90;99.90;;;;;;5342300;26;20334;-68
2024/04/16 04:05:01;;;;;;;11.57;1.60;;;7.00;99.90;;;;;;5346516;26;20239;-66
2024/04/16 04:07:27;;;;;;;5.03;1.27;;;7.00;99.90;;;;;;5345606;26;20226;-68
2024/04/16 04:09:52;;;;;;;6.63;1.73;;;7.00;99.90;;;;;;5347024;26;20409;-67
2024/04/16 04:12:18;;;;;;;7.10;1.40;;;7.00;99.90;;;;;;5342611;26;20340;-68
2024/04/16 04:14:44;;;;;;;5.53;1.38;;;7.00;99.90;;;;;;5348524;26;20289;-68
2024/04/16 04:17:10;;;;;;;5.32;1.25;;;7.00;99.90;;;;;;5344799;26;20284;-67
2024/04/16 04:19:35;;;;;;;5.63;1.13;;;7.00;99.90;;;;;;5339714;26;20235;-67
2024/04/16 04:22:01;;;;;;;5.72;1.30;;;7.00;99.90;;;;;;5340874;26;20355;-67
2024/04/16 04:24:27;;;;;;;6.45;1.38;;;7.10;99.90;;;;;;5344865;26;20238;-68
2024/04/16 04:26:53;;;;;;;3.92;1.48;;;7.10;99.90;;;;;;5346023;26;20358;-67
2024/04/16 04:29:19;;;;;;;5.53;1.20;;;7.10;99.90;;;;;;5346786;26;20226;-68
2024/04/16 04:31:45;;;;;;;4.43;1.10;;;7.10;99.90;;;;;;5347027;26;20552;-67
2024/04/16 04:34:10;;;;;;;6.63;1.30;;;7.10;99.90;;;;;;5347216;26;20349;-68
2024/04/16 04:36:36;;;;;;;5.82;1.45;;;7.10;99.90;;;;;;5408704;26;20235;-68
2024/04/16 04:39:02;;;;;;;9.10;1.70;;;7.20;99.90;;;;;;5401706;26;21044;-68
2024/04/16 04:41:28;;;;;;;3.80;1.20;;;7.20;99.90;;;;;;5345107;26;20261;-68
2024/04/16 04:43:54;;;;;;;7.55;1.17;;;7.20;99.90;;;;;;5341263;26;20272;-68
2024/04/16 04:46:20;;;;;;;4.57;1.40;;;7.20;99.90;;;;;;5351227;26;20237;-68
2024/04/16 04:48:45;;;;;;;3.83;1.02;;;7.20;99.90;;;;;;5348404;26;20231;-66
2024/04/16 04:51:12;;;;;;;5.55;1.42;;;7.20;99.90;;;;;;5342517;26;20322;-68
2024/04/16 04:53:38;;;;;;;8.27;1.10;;;7.20;99.90;;;;;;5343345;26;20226;-67
2024/04/16 04:56:04;;;;;;;6.20;1.05;;;7.20;99.90;;;;;;5344433;26;20769;-68
2024/04/16 04:58:30;;;;;;;7.15;1.30;;;7.20;99.90;;;;;;5317133;26;20242;-69
2024/04/16 05:00:56;;;;;;;8.18;1.40;;;7.30;99.90;;;;;;5345162;26;20397;-67
2024/04/16 05:03:22;;;;;;;10.38;1.70;;;7.30;99.90;;;;;;5339562;26;20234;-70
2024/04/16 05:05:47;;;;;;;7.65;1.50;;;7.30;99.90;;;;;;5342231;26;20340;-67
2024/04/16 05:08:13;;;;;;;5.72;1.52;;;7.30;99.90;;;;;;5350639;26;20252;-67
2024/04/16 05:10:39;;;;;;;10.98;1.85;;;7.40;99.90;;;;;;5345886;26;20233;-68
2024/04/16 05:13:05;;;;;;;7.95;1.58;;;7.40;99.90;;;;;;5343995;26;20347;-66
2024/04/16 05:15:31;;;;;;;6.25;1.65;;;7.40;99.90;;;;;;5341997;26;20346;-67
2024/04/16 05:17:57;;;;;;;4.68;1.40;;;7.40;99.90;;;;;;5342103;26;20238;-66
2024/04/16 05:20:22;;;;;;;5.18;1.50;;;7.30;99.90;;;;;;5342502;26;20226;-67
2024/04/16 05:22:49;;;;;;;4.20;1.40;;;7.30;99.90;;;;;;5347412;26;20234;-66
2024/04/16 05:25:15;;;;;;;5.97;1.70;;;7.40;99.90;;;;;;5347999;26;20676;-67
2024/04/16 05:27:44;;;;;;;3.63;1.40;;;7.30;99.90;;;;;;5349541;26;20289;-67
2024/04/16 05:30:10;;;;;;;4.90;1.60;;;7.40;99.90;;;;;;5342949;26;20284;-69
2024/04/16 05:32:36;;;;;;;4.43;1.40;;;7.40;99.90;;;;;;5348234;26;20270;-68
2024/04/16 05:35:02;;;;;;;4.68;1.73;;;7.40;99.90;;;;;;5408229;26;20280;-66
2024/04/16 05:37:28;;;;;;;3.45;1.80;;;7.40;99.90;;;;;;5353047;26;20268;-68
2024/04/16 05:39:53;;;;;;;4.47;1.80;;;7.40;99.90;;;;;;5347662;26;20237;-67
2024/04/16 05:42:19;;;;;;;6.68;2.22;;;7.40;99.90;;;;;;5342485;26;20318;-67
2024/04/16 05:44:45;;;;;;;4.22;2.10;;;7.40;99.90;;;;;;5353668;26;20338;-67
2024/04/16 05:47:10;;;;;;;6.57;2.20;;;7.50;99.90;;;;;;5344857;26;20279;-67
2024/04/16 05:49:36;;;;;;;3.25;2.28;;;7.40;99.90;;;;;;5342501;26;20233;-68
2024/04/16 05:52:02;;;;;;;7.05;2.50;;;7.40;99.90;;;;;;5347500;26;20239;-68
2024/04/16 05:54:29;;;;;;;3.80;2.55;;;7.40;99.90;;;;;;5349712;26;20852;-65
2024/04/16 05:56:55;;;;;;;8.27;2.65;;;7.40;99.90;;;;;;5341730;26;20234;-66
2024/04/16 05:59:21;;;;;;;7.78;3.00;;;7.40;99.90;;;;;;5348428;26;20246;-66
2024/04/16 06:01:47;;;;;;;4.55;3.15;;;7.40;99.90;;;;;;5349085;26;20681;-67
2024/04/16 06:04:12;;;;;;;5.03;2.90;;;7.40;99.90;;;;;;5342536;26;20227;-67
2024/04/16 06:06:38;;;;;;;4.18;2.90;;;7.40;99.90;;;;;;5353838;26;20631;-67
2024/04/16 06:09:04;;;;;;;6.35;3.00;;;7.40;99.90;;;;;;5350595;26;20229;-66
2024/04/16 06:11:31;;;;;;;5.13;2.33;;;7.40;99.90;;;;;;5347313;26;20364;-66
2024/04/16 06:13:57;;;;;;;3.63;2.33;;;7.40;99.90;;;;;;5349284;26;20579;-67
2024/04/16 06:16:23;;;;;;;2.72;2.22;;;7.40;99.90;;;;;;5342322;26;20238;-66
2024/04/16 06:18:51;;;;;;;4.47;2.50;;;7.40;99.90;;;;;;5348318;26;20238;-70
2024/04/16 06:21:17;;;;;;;4.30;2.58;;;7.40;99.90;;;;;;5348707;26;20248;-68
2024/04/16 06:23:42;;;;;;;4.20;2.40;;;7.40;99.90;;;;;;5348025;26;20230;-65
2024/04/16 06:26:08;;;;;;;4.47;2.35;;;7.50;99.90;;;;;;5349472;26;20281;-67
2024/04/16 06:28:34;;;;;;;4.32;2.22;;;7.40;99.90;;;;;;5347044;26;20238;-66
2024/04/16 06:31:00;;;;;;;3.15;1.83;;;7.40;99.90;;;;;;5342204;26;20229;-67
2024/04/16 06:33:28;;;;;;;1.50;1.20;;;7.40;99.90;;;;;;5349304;26;20278;-68
2024/04/16 06:35:54;;;;;;;6.57;2.90;;;7.40;99.90;;;;;;5346665;26;20265;-67
2024/04/16 06:38:24;;;;;;;8.38;5.68;;;7.30;99.90;;;;;;5349233;26;20229;-67
2024/04/16 06:41:04;;;;;;;;;;;;;;;;;;;;;
2024/04/16 06:43:33;;;;;;;3.05;1.60;;;7.30;99.90;;;;;;5353151;26;20667;-73
2024/04/16 06:45:59;;;;;;;3.75;1.73;;;7.20;99.90;;;;;;5342088;26;20242;-66
2024/04/16 06:48:25;;;;;;;4.13;2.20;;;7.30;99.90;;;;;;5381225;26;20289;-68
2024/04/16 06:50:50;;;;;;;1.90;1.42;;;7.30;99.90;;;;;;5351780;26;20479;-67
2024/04/16 06:53:16;;;;;;;3.53;1.45;;;7.30;99.90;;;;;;5351133;26;20231;-67
2024/04/16 06:55:42;;;;;;;1.40;1.27;;;7.40;99.90;;;;;;5346431;26;20595;-68
2024/04/16 06:58:08;;;;;;;5.20;1.50;;;7.50;99.90;;;;;;5344940;26;20239;-65
2024/04/16 07:00:34;;;;;;;3.08;1.80;;;7.50;99.90;;;;;;5355349;26;20319;-68
2024/04/16 07:03:00;;;;;;;5.28;2.10;;;7.70;99.90;;;;;;5345181;26;20294;-68
2024/04/16 07:05:26;;;;;;;5.50;1.48;;;7.80;99.90;;;;;;5347437;26;20678;-68
2024/04/16 07:07:52;;;;;;;3.25;1.90;;;7.90;99.90;;;;;;5349123;26;20244;-67
2024/04/16 07:10:18;;;;;;;4.63;1.70;;;8.00;99.90;;;;;;5350355;26;20261;-68
2024/04/16 07:12:43;;;;;;;2.88;1.63;;;8.10;99.90;;;;;;5348034;26;20415;-66
2024/04/16 07:15:10;;;;;;;1.45;1.20;;;8.30;99.90;;;;;;5405093;26;20233;-66
2024/04/16 07:17:37;;;;;;;1.60;1.20;;;8.40;99.90;;;;;;5345124;26;20668;-66
2024/04/16 07:20:03;;;;;;;3.15;1.33;;;8.50;99.90;;;;;;5358226;26;20235;-66
2024/04/16 07:22:29;;;;;;;2.22;1.50;;;8.60;99.90;;;;;;5346057;26;20553;-67
2024/04/16 07:24:54;;;;;;;1.60;1.00;;;8.70;99.90;;;;;;5349321;26;20293;-68
2024/04/16 07:27:21;;;;;;;1.17;0.70;;;8.70;99.90;;;;;;5364249;26;20227;-67
2024/04/16 07:29:47;;;;;;;1.48;0.93;;;8.70;99.90;;;;;;5349137;26;20241;-69
2024/04/16 07:32:13;;;;;;;3.20;1.08;;;8.70;99.90;;;;;;5351888;26;20293;-67
2024/04/16 07:34:39;;;;;;;1.10;1.00;;;8.80;99.90;;;;;;5344619;26;20737;-68
2024/04/16 07:37:05;;;;;;;1.75;1.00;;;8.80;99.90;;;;;;5354963;26;20338;-67
2024/04/16 07:39:30;;;;;;;1.20;1.10;;;8.80;99.90;;;;;;5346760;26;20621;-66
2024/04/16 07:41:56;;;;;;;1.10;0.80;;;8.90;99.90;;;;;;5348271;26;20638;-66
2024/04/16 07:44:22;;;;;;;1.33;1.10;;;9.00;99.90;;;;;;5356425;26;20936;-66
2024/04/16 07:46:48;;;;;;;2.25;1.00;;;9.10;99.90;;;;;;5348289;26;20695;-68
2024/04/16 07:49:14;;;;;;;1.23;1.10;;;9.20;99.90;;;;;;5346193;26;20237;-66
2024/04/16 07:51:39;;;;;;;1.88;1.30;;;9.20;99.90;;;;;;5375370;26;20246;-67
2024/04/16 07:54:05;;;;;;;1.30;1.20;;;9.30;99.90;;;;;;5405523;26;20298;-65
2024/04/16 07:56:31;;;;;;;1.83;1.10;;;9.40;99.90;;;;;;5345480;26;20338;-67
2024/04/16 07:58:56;;;;;;;1.08;0.82;;;9.40;99.90;;;;;;5403633;26;20250;-66
2024/04/16 08:01:22;;;;;;;1.20;0.80;;;9.40;99.90;;;;;;5344289;26;20277;-66
2024/04/16 08:03:48;;;;;;;1.23;0.85;;;9.40;99.90;;;;;;5350885;26;20290;-67
2024/04/16 08:06:13;;;;;;;1.30;1.20;;;9.50;99.90;;;;;;5358176;26;20245;-67
2024/04/16 08:08:39;;;;;;;0.82;0.82;;;9.50;99.90;;;;;;5354715;26;20309;-67
2024/04/16 08:11:13;;;;;;;5.20;1.70;;;9.50;99.90;;;;;;5348905;26;20673;-68
2024/04/16 08:13:39;;;;;;;1.48;1.00;;;9.60;99.90;;;;;;5348736;26;20239;-66
2024/04/16 08:16:06;;;;;;;1.10;1.00;;;9.70;99.90;;;;;;5349690;26;20676;-66
2024/04/16 08:18:32;;;;;;;0.82;0.80;;;9.80;99.90;;;;;;5350103;26;20343;-66
2024/04/16 08:20:58;;;;;;;1.75;0.90;;;9.90;99.90;;;;;;5354048;26;20743;-67
2024/04/16 08:23:23;;;;;;;2.13;1.30;;;10.00;99.90;;;;;;5349797;26;20238;-66
2024/04/16 08:25:58;;;;;;;3.30;1.10;;;10.00;99.90;;;;;;5351700;26;20245;-66
2024/04/16 08:28:24;;;;;;;1.15;1.00;;;10.10;99.90;;;;;;5348220;26;20250;-66
2024/04/16 08:30:53;;;;;;;1.25;1.10;;;10.20;99.90;;;;;;5354370;26;20268;-67
2024/04/16 08:33:22;;;;;;;1.38;1.00;;;10.20;99.90;;;;;;5350574;26;20340;-67
2024/04/16 08:35:49;;;;;;;1.17;1.00;;;10.20;99.90;;;;;;5349450;26;20268;-68
2024/04/16 08:38:15;;;;;;;1.75;1.30;;;10.30;99.90;;;;;;5345086;26;20231;-66
2024/04/16 08:40:41;;;;;;;2.38;1.23;;;10.30;99.90;;;;;;5351518;26;21327;-67
2024/04/16 08:43:08;;;;;;;1.15;1.05;;;10.40;99.90;;;;;;5348121;26;20377;-66
2024/04/16 08:45:34;;;;;;;1.42;1.25;;;10.40;99.90;;;;;;5347524;26;20301;-67
2024/04/16 08:48:01;;;;;;;1.95;1.08;;;10.50;99.90;;;;;;5348109;26;20234;-67
2024/04/16 08:50:28;;;;;;;1.15;1.02;;;10.60;99.90;;;;;;5346494;26;20276;-67
2024/04/16 08:52:58;;;;;;;2.65;1.63;;;10.60;99.90;;;;;;5347365;26;20242;-67
2024/04/16 08:55:25;;;;;;;1.63;1.10;;;10.70;99.90;;;;;;5363533;26;20342;-67
2024/04/16 08:57:51;;;;;;;2.60;1.60;;;10.70;99.90;;;;;;5351123;26;20351;-69
2024/04/16 09:00:18;;;;;;;2.08;1.30;;;10.70;99.90;;;;;;5345646;26;20564;-67
2024/04/16 09:02:45;;;;;;;1.88;1.25;;;10.80;99.90;;;;;;5349265;26;20802;-68
2024/04/16 09:05:10;;;;;;;1.83;1.05;;;10.90;99.90;;;;;;5344841;26;20755;-67
2024/04/16 09:07:38;;;;;;;1.42;1.00;;;10.90;99.90;;;;;;5348776;26;20234;-67
2024/04/16 09:10:22;;;;;;;3.38;1.13;;;11.00;99.90;;;;;;5348924;26;21139;-67
2024/04/16 09:12:48;;;;;;;2.95;1.05;;;11.10;99.90;;;;;;5348341;26;20235;-67
2024/04/16 09:15:16;;;;;;;1.45;1.00;;;11.10;99.90;;;;;;5350670;26;20238;-67
2024/04/16 09:17:50;;;;;;;7.38;3.88;;;11.10;99.90;;;;;;5350924;26;20271;-65
2024/04/16 09:20:24;;;;;;;1.95;0.98;;;11.20;99.90;;;;;;5353176;26;20273;-68
2024/04/16 09:22:51;;;;;;;0.98;0.88;;;11.30;99.90;;;;;;5347306;26;20377;-67
2024/04/16 09:25:18;;;;;;;6.47;3.17;;;11.40;99.90;;;;;;5348090;26;20230;-68
2024/04/16 09:27:51;;;;;;;2.03;1.52;;;11.60;99.90;;;;;;5343657;26;20229;-66
2024/04/16 09:30:17;;;;;;;1.83;1.20;;;11.60;99.90;;;;;;5404285;26;20347;-67
2024/04/16 09:32:56;;;;;;;2.47;1.10;;;11.60;99.90;;;;;;5349707;26;20244;-66
2024/04/16 09:35:28;;;;;;;1.20;0.82;;;11.60;99.90;;;;;;5346595;26;20534;-66
2024/04/16 09:38:05;;;;;;;1.80;1.10;;;11.50;99.90;;;;;;5350077;26;20281;-66
2024/04/16 09:40:31;;;;;;;1.52;1.00;;;11.50;99.90;;;;;;5343833;26;20234;-67
2024/04/16 09:42:58;;;;;;;1.20;0.80;;;11.60;99.90;;;;;;5347193;26;20242;-67
2024/04/16 09:45:24;;;;;;;1.27;1.10;;;11.50;99.90;;;;;;5353716;26;20245;-67
2024/04/16 09:47:51;;;;;;;1.50;1.25;;;11.40;99.90;;;;;;5348178;26;20230;-68
2024/04/16 09:50:21;;;;;;;1.30;1.10;;;11.50;99.90;;;;;;5350117;26;20288;-67
2024/04/16 09:52:51;;;;;;;1.88;1.00;;;11.50;99.90;;;;;;5363716;26;20651;-67
2024/04/16 09:55:21;;;;;;;1.27;1.00;;;11.50;99.90;;;;;;5404263;26;20234;-67
2024/04/16 09:57:48;;;;;;;0.60;0.55;;;11.60;99.90;;;;;;5343874;26;20233;-66
2024/04/16 10:00:15;;;;;;;1.70;0.90;;;11.70;99.90;;;;;;5345917;26;20317;-66
2024/04/16 10:02:42;;;;;;;1.02;1.00;;;11.90;99.90;;;;;;5337938;26;20631;-66
2024/04/16 10:05:13;;;;;;;0.70;0.70;;;12.10;99.90;;;;;;5345849;26;20257;-68
2024/04/16 10:07:40;;;;;;;1.98;0.80;;;12.10;99.90;;;;;;5347459;26;20353;-66
2024/04/16 10:10:09;;;;;;;1.73;0.98;;;12.30;99.90;;;;;;5342406;26;20250;-68
2024/04/16 10:12:37;;;;;;;1.38;0.95;;;12.30;99.90;;;;;;5356483;26;20238;-67
2024/04/16 10:15:05;;;;;;;1.83;1.00;;;12.20;99.90;;;;;;5345047;26;20303;-68
2024/04/16 10:17:32;;;;;;;2.13;0.88;;;12.20;99.90;;;;;;5351699;26;20258;-67
2024/04/16 10:20:08;;;;;;;1.02;0.93;;;12.40;99.90;;;;;;5345585;26;20227;-67
2024/04/16 10:22:37;;;;;;;0.90;0.90;;;12.50;99.90;;;;;;5347323;26;20610;-66
2024/04/16 10:25:04;;;;;;;0.90;0.90;;;12.50;99.90;;;;;;5355758;26;20229;-66
2024/04/16 10:27:31;;;;;;;0.57;0.57;;;12.50;99.90;;;;;;5404883;26;20392;-68
2024/04/16 10:30:11;;;;;;;0.68;0.68;;;12.50;99.90;;;;;;5341313;26;20405;-66
2024/04/16 10:32:49;;;;;;;2.88;0.80;;;12.50;99.90;;;;;;5345324;26;20278;-66
2024/04/16 10:35:18;;;;;;;1.13;0.90;;;12.40;99.90;;;;;;5379128;26;20634;-66
2024/04/16 10:37:50;;;;;;;0.88;0.70;;;12.40;99.90;;;;;;5348831;26;20699;-68
2024/04/16 10:40:26;;;;;;;0.70;0.68;;;12.50;99.90;;;;;;5346024;26;20328;-68
2024/04/16 10:42:53;;;;;;;0.70;0.70;;;12.60;99.90;;;;;;5347317;26;20245;-67
2024/04/16 10:45:20;;;;;;;0.95;0.70;;;12.60;99.90;;;;;;5350149;26;20234;-68
2024/04/16 10:47:48;;;;;;;1.20;0.80;;;12.60;99.90;;;;;;5348980;26;20246;-68
2024/04/16 10:50:13;;;;;;;1.27;1.10;;;12.70;99.90;;;;;;5352261;26;20243;-68
2024/04/16 10:52:39;;;;;;;1.83;0.70;;;12.70;99.90;;;;;;5346545;26;20234;-69
2024/04/16 10:55:05;;;;;;;2.45;0.93;;;12.70;99.90;;;;;;5349167;26;21174;-67
2024/04/16 10:57:31;;;;;;;2.58;0.85;;;12.80;99.90;;;;;;5350098;26;20273;-67
2024/04/16 10:59:57;;;;;;;3.00;0.73;;;12.80;99.90;;;;;;5342170;26;20433;-68
2024/04/16 11:02:23;;;;;;;1.13;0.57;;;12.80;99.90;;;;;;5350055;26;20249;-67
2024/04/16 11:04:50;;;;;;;2.35;0.70;;;12.70;99.90;;;;;;5350008;26;20239;-67
2024/04/16 11:07:19;;;;;;;3.08;0.98;;;12.70;99.90;;;;;;5344874;26;20269;-67
2024/04/16 11:09:44;;;;;;;1.15;0.60;;;12.70;99.90;;;;;;5354909;26;20295;-67
2024/04/16 11:12:11;;;;;;;1.13;0.70;;;12.80;99.90;;;;;;5348470;26;20631;-68
2024/04/16 11:14:37;;;;;;;1.08;0.57;;;12.90;99.90;;;;;;5347538;26;20246;-68
2024/04/16 11:17:04;;;;;;;5.15;0.65;;;12.90;99.90;;;;;;5345968;26;20289;-67
2024/04/16 11:19:30;;;;;;;0.63;0.60;;;12.90;99.90;;;;;;5353048;26;20290;-67
2024/04/16 11:21:56;;;;;;;0.80;0.70;;;12.90;99.90;;;;;;5409817;26;20289;-66
2024/04/16 11:24:23;;;;;;;2.28;0.70;;;12.80;99.90;;;;;;5341971;26;20230;-68
2024/04/16 11:26:49;;;;;;;0.60;0.60;;;12.80;99.90;;;;;;5352197;26;20294;-66
2024/04/16 11:29:18;;;;;;;0.70;0.50;;;12.80;99.90;;;;;;5357637;26;20243;-67
2024/04/16 11:31:45;;;;;;;3.70;0.60;;;12.80;99.90;;;;;;5344648;26;20225;-66
2024/04/16 11:34:11;;;;;;;1.15;0.55;;;12.80;99.90;;;;;;5346793;26;20239;-68
2024/04/16 11:36:37;;;;;;;1.33;0.70;;;12.80;99.90;;;;;;5344931;26;20440;-68
2024/04/16 11:39:05;;;;;;;1.17;0.50;;;12.90;99.90;;;;;;5353762;26;20234;-67
2024/04/16 11:41:31;;;;;;;1.38;0.60;;;12.90;99.90;;;;;;5351038;26;20580;-67
2024/04/16 11:43:57;;;;;;;2.33;0.70;;;12.80;99.90;;;;;;5344983;26;20288;-67
2024/04/16 11:46:23;;;;;;;2.50;0.75;;;12.80;99.90;;;;;;5352635;26;20367;-67
2024/04/16 11:48:48;;;;;;;2.17;1.38;;;12.90;99.90;;;;;;5349907;26;20592;-66
2024/04/16 11:51:15;;;;;;;1.23;0.60;;;13.00;99.90;;;;;;5347765;26;20241;-66
2024/04/16 11:53:40;;;;;;;1.48;0.60;;;13.00;99.90;;;;;;5353318;26;20229;-66
2024/04/16 11:56:07;;;;;;;1.25;0.57;;;13.20;99.90;;;;;;5349588;26;20601;-66
2024/04/16 11:58:34;;;;;;;4.68;0.70;;;13.40;99.90;;;;;;5349056;26;20325;-66
2024/04/16 12:01:00;;;;;;;0.82;0.60;;;13.50;99.90;;;;;;5408034;26;20270;-67
2024/04/16 12:03:26;;;;;;;2.42;0.70;;;13.40;99.90;;;;;;5345433;26;20343;-68
2024/04/16 12:05:51;;;;;;;2.75;0.80;;;13.50;99.90;;;;;;5350810;26;20249;-68
2024/04/16 12:08:17;;;;;;;1.73;0.73;;;13.50;99.90;;;;;;5344835;26;20242;-68
2024/04/16 12:10:43;;;;;;;0.95;0.88;;;13.40;99.90;;;;;;5354358;26;20259;-68
2024/04/16 12:13:09;;;;;;;6.25;1.10;;;13.40;99.90;;;;;;5335510;26;20293;-67
2024/04/16 12:15:38;;;;;;;1.92;1.30;;;13.30;99.90;;;;;;5347048;26;20229;-67
2024/04/16 12:18:05;;;;;;;2.53;1.60;;;13.20;99.90;;;;;;5357284;26;20233;-67
2024/04/16 12:20:31;;;;;;;4.97;1.50;;;13.10;99.90;;;;;;5408070;26;20241;-67
2024/04/16 12:22:57;;;;;;;3.38;1.50;;;13.00;99.90;;;;;;5352874;26;20293;-67
2024/04/16 12:25:22;;;;;;;3.78;1.63;;;12.90;99.90;;;;;;5380485;26;20242;-68
2024/04/16 12:27:48;;;;;;;3.50;1.80;;;13.00;99.90;;;;;;5349202;26;20551;-68
2024/04/16 12:30:14;;;;;;;3.08;2.15;;;13.00;99.90;;;;;;5355563;26;20242;-67
2024/04/16 12:32:40;;;;;;;6.05;2.30;;;13.10;99.90;;;;;;5349433;26;20405;-67
2024/04/16 12:35:06;;;;;;;3.72;1.98;;;13.00;99.90;;;;;;5345723;26;20253;-66
2024/04/16 12:37:31;;;;;;;4.70;2.10;;;13.00;99.90;;;;;;5348141;26;20277;-67
2024/04/16 12:39:57;;;;;;;5.72;2.67;;;12.90;99.90;;;;;;5347813;26;20298;-67
2024/04/16 12:42:23;;;;;;;4.30;2.85;;;12.90;99.90;;;;;;5344189;26;20282;-67
2024/04/16 12:44:48;;;;;;;12.02;4.25;;;12.80;99.90;;;;;;5349220;26;20298;-67
2024/04/16 12:47:14;;;;;;;6.13;3.08;;;12.60;99.90;;;;;;5345115;26;20233;-67
2024/04/16 12:49:40;;;;;;;8.23;2.42;;;12.30;99.90;;;;;;5352842;26;20612;-67
2024/04/16 12:52:06;;;;;;;3.60;1.52;;;12.20;99.90;;;;;;5343067;26;21755;-67
2024/04/16 12:54:35;;;;;;;6.55;1.73;;;12.20;99.90;;;;;;5345628;26;20339;-68